Time;durP1;ratioP1;P1;durP2;ratioP2;P2;SDS_P1;SDS_P2;PMS_P1;PMS_P2;Temp;Humidity;BMP_temperature;BMP_pressure;BME280_temperature;BME280_humidity;BME280_pressure;Samples;Min_cycle;Max_cycle;Signal;HPM_P1;HPM_P2
2021/12/21 00:00:59;;;;;;;4.93;0.40;;;;;;;8.46;68.83;102281.25;7400703;19;20014;-67
2021/12/21 00:03:26;;;;;;;3.22;0.35;;;;;;;8.46;69.10;102276.00;7403833;19;20073;-66
2021/12/21 00:05:54;;;;;;;4.30;0.43;;;;;;;8.46;69.19;102276.00;7403300;19;20047;-68
2021/12/21 00:08:21;;;;;;;1.33;0.30;;;;;;;8.52;69.53;102277.38;7400512;19;20484;-68
2021/12/21 00:11:08;;;;;;;3.28;0.80;;;;;;;8.51;69.43;102273.06;7402868;19;20021;-68
2021/12/21 00:13:42;;;;;;;4.38;0.40;;;;;;;8.54;69.32;102273.69;7403303;19;20014;-66
2021/12/21 00:16:17;;;;;;;6.45;0.68;;;;;;;8.53;69.24;102271.19;7401714;19;20289;-67
2021/12/21 00:19:06;;;;;;;3.78;0.20;;;;;;;8.61;69.09;102270.66;7401860;19;20014;-67
2021/12/21 00:21:38;;;;;;;3.15;0.20;;;;;;;8.62;69.28;102264.47;7401805;19;20578;-68
2021/12/21 00:24:18;;;;;;;6.85;0.60;;;;;;;8.54;70.51;102257.13;7404179;19;20022;-68
2021/12/21 00:26:46;;;;;;;5.45;0.40;;;;;;;8.52;69.30;102261.66;7399716;19;20025;-68
2021/12/21 00:29:12;;;;;;;4.30;0.40;;;;;;;8.53;69.32;102258.09;7402716;19;20356;-68
2021/12/21 00:31:40;;;;;;;5.80;0.57;;;;;;;8.51;69.62;102262.59;7404531;19;20011;-66
2021/12/21 00:34:08;;;;;;;4.10;0.45;;;;;;;8.42;70.13;102258.81;7401524;19;20539;-66
2021/12/21 00:36:37;;;;;;;1.77;0.35;;;;;;;8.46;70.44;102257.66;7400108;19;20011;-67
2021/12/21 00:39:11;;;;;;;;;;;;;;;8.47;70.27;102259.34;7398339;19;20011;-67
2021/12/21 00:41:38;;;;;;;4.80;0.40;;;;;;;8.45;70.88;102250.72;7401797;19;19926;-67
2021/12/21 00:44:05;;;;;;;3.65;0.30;;;;;;;8.43;70.56;102252.59;7398683;19;20456;-67
2021/12/21 00:46:32;;;;;;;6.90;0.80;;;;;;;8.40;70.68;102251.97;7403899;19;20463;-67
2021/12/21 00:49:13;;;;;;;4.25;0.28;;;;;;;8.35;71.04;102243.56;7400476;19;20018;-67
2021/12/21 00:51:42;;;;;;;2.53;0.40;;;;;;;8.33;71.19;102248.91;7403324;19;20042;-67
2021/12/21 00:54:16;;;;;;;2.85;0.32;;;;;;;8.28;71.23;102237.06;7400943;19;20035;-67
2021/12/21 00:56:45;;;;;;;4.68;0.50;;;;;;;8.27;71.69;102230.97;7399875;19;20313;-67
2021/12/21 00:59:13;;;;;;;2.65;0.30;;;;;;;8.25;71.81;102227.59;7403785;19;20034;-67
2021/12/21 01:01:42;;;;;;;5.35;0.30;;;;;;;8.27;71.83;102224.88;7403863;19;20038;-67
2021/12/21 01:04:21;;;;;;;3.30;0.40;;;;;;;8.28;72.93;102216.88;7402408;19;20027;-67
2021/12/21 01:12:11;;;;;;;6.97;0.47;;;;;;;8.29;72.08;102222.97;7389807;19;20021;-66
2021/12/21 01:17:22;;;;;;;5.53;0.40;;;;;;;8.27;72.22;102219.63;7395628;19;20015;-67
2021/12/21 01:20:02;;;;;;;4.65;0.40;;;;;;;8.27;72.81;102225.72;7396355;19;20013;-69
2021/12/21 01:22:54;;;;;;;3.30;0.63;;;;;;;8.25;72.51;102221.50;7395426;19;20460;-67
2021/12/21 01:28:07;;;;;;;6.18;0.70;;;;;;;8.27;72.65;102222.25;7394249;19;20021;-65
2021/12/21 01:35:46;;;;;;;5.65;0.50;;;;;;;8.22;73.08;102217.31;7390406;19;20100;-67
2021/12/21 01:40:55;;;;;;;2.63;0.35;;;;;;;8.16;73.68;102220.34;7393278;19;20010;-68
2021/12/21 01:43:31;;;;;;;3.13;0.30;;;;;;;8.11;73.58;102209.34;7394764;19;20010;-67
2021/12/21 01:51:13;;;;;;;1.42;0.30;;;;;;;8.05;73.98;102196.63;7388428;19;20094;-65
2021/12/21 01:53:43;;;;;;;2.65;0.30;;;;;;;8.04;74.46;102202.81;7393180;19;20015;-66
2021/12/21 01:56:12;;;;;;;2.10;0.45;;;;;;;8.01;74.89;102198.63;7392420;19;20084;-67
2021/12/21 01:58:41;;;;;;;4.65;1.25;;;;;;;8.04;75.22;102197.56;7394292;19;20002;-68
2021/12/21 02:01:15;;;;;;;5.10;0.50;;;;;;;8.03;74.76;102196.72;7394692;19;19998;-67
2021/12/21 02:03:47;;;;;;;3.17;0.30;;;;;;;8.07;75.65;102192.13;7394251;19;20182;-66
2021/12/21 02:06:19;;;;;;;2.40;0.63;;;;;;;8.13;75.29;102189.94;7394104;19;20014;-66
2021/12/21 02:08:46;;;;;;;4.43;0.40;;;;;;;8.16;74.61;102189.75;7391469;19;20275;-68
2021/12/21 02:11:15;;;;;;;2.80;0.50;;;;;;;8.21;74.78;102192.03;7390108;19;20038;-68
2021/12/21 02:13:47;;;;;;;5.20;1.38;;;;;;;8.22;74.99;102195.50;7393535;19;20115;-68
2021/12/21 02:16:22;;;;;;;1.27;0.22;;;;;;;8.18;75.11;102190.44;7394779;19;20432;-66
2021/12/21 02:21:38;;;;;;;2.25;0.40;;;;;;;8.24;74.66;102191.81;7389734;19;20007;-66
2021/12/21 02:24:12;;;;;;;2.95;0.68;;;;;;;8.27;75.22;102188.16;7392407;19;20496;-67
2021/12/21 02:26:46;;;;;;;5.55;0.50;;;;;;;8.28;74.46;102189.84;7393034;19;20095;-67
2021/12/21 02:29:25;;;;;;;4.00;0.40;;;;;;;8.27;74.47;102186.38;7392294;19;20370;-68
2021/12/21 02:31:53;;;;;;;1.95;0.25;;;;;;;8.20;74.77;102182.50;7371678;19;20015;-67
2021/12/21 02:34:23;;;;;;;3.08;0.40;;;;;;;8.16;75.30;102188.91;7386283;19;20134;-67
2021/12/21 02:36:54;;;;;;;4.63;0.30;;;;;;;8.12;75.63;102185.66;7391964;19;20011;-65
2021/12/21 02:39:23;;;;;;;3.92;0.50;;;;;;;8.12;75.84;102183.03;7388441;19;20016;-66
2021/12/21 02:41:51;;;;;;;2.80;0.45;;;;;;;8.14;76.38;102173.25;7392039;19;20631;-67
2021/12/21 02:44:20;;;;;;;4.43;0.60;;;;;;;8.10;76.21;102176.19;7387658;19;20014;-68
2021/12/21 02:46:47;;;;;;;3.42;0.50;;;;;;;8.13;76.36;102178.59;7391641;19;20715;-67
2021/12/21 02:49:14;;;;;;;5.80;0.40;;;;;;;8.15;76.65;102172.31;7391919;19;20010;-67
2021/12/21 02:51:45;;;;;;;4.15;0.50;;;;;;;8.19;76.45;102175.56;7390413;19;20006;-67
2021/12/21 02:54:13;;;;;;;3.65;0.60;;;;;;;8.22;75.88;102172.75;7393193;19;20028;-67
2021/12/21 02:56:41;;;;;;;3.65;0.50;;;;;;;8.21;75.89;102173.69;7388232;19;20029;-67
2021/12/21 02:59:08;;;;;;;2.67;0.40;;;;;;;8.16;76.02;102168.75;7390187;19;20034;-66
2021/12/21 03:01:36;;;;;;;4.53;0.40;;;;;;;8.13;76.37;102171.56;7390015;19;20007;-66
2021/12/21 03:04:05;;;;;;;6.13;0.50;;;;;;;8.14;76.59;102175.03;7388022;19;20026;-67
2021/12/21 03:09:36;;;;;;;7.45;0.50;;;;;;;8.14;76.63;102175.03;7388296;19;20263;-68
2021/12/21 03:14:36;;;;;;;6.20;0.47;;;;;;;8.08;76.69;102168.44;7386852;19;20559;-67
2021/12/21 03:17:05;;;;;;;3.60;0.55;;;;;;;8.02;77.24;102161.00;7389180;19;20015;-67
2021/12/21 03:19:32;;;;;;;2.72;0.40;;;;;;;8.01;77.47;102172.41;7386718;19;20743;-68
2021/12/21 03:21:59;;;;;;;3.97;0.38;;;;;;;8.00;77.75;102172.50;7385024;19;20006;-68
2021/12/21 03:24:27;;;;;;;5.55;0.50;;;;;;;8.01;77.86;102172.41;7384985;19;20007;-68
2021/12/21 03:26:53;;;;;;;5.32;0.40;;;;;;;8.01;78.18;102174.19;7386958;19;20015;-68
2021/12/21 03:29:20;;;;;;;0.70;0.30;;;;;;;8.06;77.43;102162.47;7387691;19;20019;-68
2021/12/21 03:31:47;;;;;;;2.95;0.30;;;;;;;8.07;77.59;102168.56;7363022;19;20014;-67
2021/12/21 03:34:15;;;;;;;4.68;0.40;;;;;;;8.04;77.88;102163.50;7387685;19;20439;-68
2021/12/21 03:36:42;;;;;;;6.65;0.50;;;;;;;8.06;77.67;102169.50;7386886;19;20022;-67
2021/12/21 03:39:16;;;;;;;4.07;0.40;;;;;;;8.07;77.81;102156.28;7387225;19;20126;-65
2021/12/21 03:41:47;;;;;;;4.40;1.00;;;;;;;8.08;77.63;102149.22;7389911;19;20010;-67
2021/12/21 03:44:17;;;;;;;4.63;0.40;;;;;;;8.10;77.61;102152.59;7389768;19;20356;-66
2021/12/21 03:46:48;;;;;;;4.03;1.67;;;;;;;8.08;78.17;102157.09;7388996;19;20014;-68
2021/12/21 03:51:54;;;;;;;4.78;1.27;;;;;;;8.05;77.87;102147.69;7389857;19;20013;-68
2021/12/21 03:54:22;;;;;;;2.97;0.75;;;;;;;8.03;79.08;102153.94;7388204;19;20009;-68
2021/12/21 03:56:51;;;;;;;5.97;0.68;;;;;;;7.99;78.84;102152.47;7387648;19;20015;-67
2021/12/21 03:59:19;;;;;;;4.55;0.50;;;;;;;7.95;78.81;102157.09;7387478;19;20064;-67
2021/12/21 04:01:48;;;;;;;4.53;0.50;;;;;;;7.94;78.91;102154.56;7389077;19;20471;-68
2021/12/21 04:04:19;;;;;;;6.90;0.95;;;;;;;7.94;78.87;102160.66;7389724;19;20114;-68
2021/12/21 04:06:47;;;;;;;2.03;0.38;;;;;;;7.96;78.97;102152.69;7385375;19;20324;-68
2021/12/21 04:09:18;;;;;;;6.45;0.98;;;;;;;7.97;79.39;102147.38;7385273;19;20040;-68
2021/12/21 04:11:48;;;;;;;2.55;0.40;;;;;;;8.06;78.79;102146.75;7382729;19;20010;-66
2021/12/21 04:14:18;;;;;;;4.82;0.47;;;;;;;8.06;78.38;102138.03;7382580;19;20036;-67
2021/12/21 04:16:45;;;;;;;5.63;0.60;;;;;;;8.06;79.16;102138.88;7386154;19;20033;-66
2021/12/21 04:19:13;;;;;;;2.03;0.40;;;;;;;8.07;78.96;102139.72;7389007;19;20011;-66
2021/12/21 04:21:41;;;;;;;4.82;0.50;;;;;;;8.04;78.67;102143.38;7384801;19;20029;-67
2021/12/21 04:24:08;;;;;;;5.43;0.85;;;;;;;8.01;78.57;102140.13;7388468;19;20330;-66
2021/12/21 04:26:35;;;;;;;3.47;0.40;;;;;;;8.00;79.14;102135.81;7386947;19;20022;-67
2021/12/21 04:29:03;;;;;;;5.90;0.60;;;;;;;7.98;78.92;102137.69;7386958;19;20026;-67
2021/12/21 04:31:31;;;;;;;3.58;0.80;;;;;;;8.00;78.92;102136.66;7363555;19;20773;-67
2021/12/21 04:33:59;;;;;;;5.40;0.55;;;;;;;8.03;79.30;102131.22;7383731;19;20015;-67
2021/12/21 04:36:27;;;;;;;5.03;0.93;;;;;;;8.06;78.91;102130.16;7385309;19;20011;-66
2021/12/21 04:38:55;;;;;;;3.22;0.50;;;;;;;8.07;78.45;102129.25;7384130;19;20015;-67
2021/12/21 04:41:24;;;;;;;6.80;0.65;;;;;;;8.10;79.55;102134.25;7388169;19;20011;-66
2021/12/21 04:43:53;;;;;;;2.30;0.40;;;;;;;8.02;79.06;102126.94;7393758;19;20018;-70
2021/12/21 04:46:20;;;;;;;4.25;0.50;;;;;;;8.00;79.15;102138.44;7396153;19;20840;-67
2021/12/21 04:48:48;;;;;;;2.90;0.57;;;;;;;8.02;79.58;102128.72;7395149;19;20026;-69
2021/12/21 04:51:15;;;;;;;4.63;0.45;;;;;;;8.05;79.48;102131.09;7392563;19;20501;-67
2021/12/21 04:53:42;;;;;;;6.50;1.13;;;;;;;8.01;79.46;102130.50;7393546;19;20771;-66
2021/12/21 04:56:10;;;;;;;4.72;0.80;;;;;;;8.02;79.65;102123.47;7396321;19;20019;-66
2021/12/21 04:58:37;;;;;;;4.28;0.60;;;;;;;7.99;79.63;102126.28;7392611;19;20010;-67
2021/12/21 05:01:05;;;;;;;5.03;0.75;;;;;;;8.00;79.44;102126.19;7392150;19;20011;-67
2021/12/21 05:03:33;;;;;;;3.90;0.90;;;;;;;7.98;79.55;102129.84;7393046;19;20011;-67
2021/12/21 05:06:00;;;;;;;3.28;0.50;;;;;;;8.05;79.67;102131.09;7395107;19;20021;-67
2021/12/21 05:08:32;;;;;;;3.05;0.70;;;;;;;8.05;79.31;102125.88;7392613;19;20013;-66
2021/12/21 05:11:04;;;;;;;4.20;0.40;;;;;;;8.11;79.05;102122.84;7389833;19;20007;-66
2021/12/21 05:13:34;;;;;;;6.57;0.75;;;;;;;8.14;79.97;102123.47;7391790;19;20007;-67
2021/12/21 05:16:02;;;;;;;5.65;0.52;;;;;;;8.16;79.42;102123.34;7392714;19;20014;-67
2021/12/21 05:18:32;;;;;;;2.67;0.98;;;;;;;8.10;79.18;102122.00;7395880;19;20206;-67
2021/12/21 05:21:00;;;;;;;3.95;0.60;;;;;;;8.10;78.77;102114.13;7394675;19;20439;-67
2021/12/21 05:23:27;;;;;;;5.88;0.50;;;;;;;8.12;78.79;102122.75;7394446;19;20070;-66
2021/12/21 05:25:54;;;;;;;4.90;0.65;;;;;;;8.09;78.73;102117.69;7393773;19;20479;-68
2021/12/21 05:28:21;;;;;;;5.00;0.70;;;;;;;8.09;79.05;102116.84;7393552;19;20022;-65
2021/12/21 05:30:48;;;;;;;3.15;0.68;;;;;;;8.11;79.28;102115.81;7374329;19;20021;-66
2021/12/21 05:33:16;;;;;;;3.70;0.55;;;;;;;8.11;78.95;102112.34;7392301;19;20014;-66
2021/12/21 05:35:43;;;;;;;3.30;0.50;;;;;;;8.10;78.65;102118.53;7391749;19;20028;-66
2021/12/21 05:38:13;;;;;;;4.53;0.47;;;;;;;8.09;79.39;102122.94;7391042;19;20006;-68
2021/12/21 05:40:43;;;;;;;3.53;0.50;;;;;;;8.12;78.74;102114.88;7393788;19;20022;-68
2021/12/21 05:43:12;;;;;;;2.50;0.60;;;;;;;8.10;78.84;102114.13;7394328;19;20023;-66
2021/12/21 05:45:39;;;;;;;2.22;0.60;;;;;;;8.07;79.06;102110.88;7393015;19;20018;-67
2021/12/21 05:48:07;;;;;;;5.78;0.90;;;;;;;8.06;79.10;102117.06;7392219;19;20007;-67
2021/12/21 05:50:34;;;;;;;4.75;1.13;;;;;;;8.02;79.28;102113.81;7391734;19;20078;-67
2021/12/21 05:53:01;;;;;;;2.95;0.77;;;;;;;8.02;79.59;102118.22;7392882;19;20026;-66
2021/12/21 05:55:29;;;;;;;3.08;0.75;;;;;;;8.04;80.33;102125.03;7391389;19;20287;-68
2021/12/21 05:57:56;;;;;;;4.20;0.52;;;;;;;8.06;79.84;102128.41;7394670;19;20445;-67
2021/12/21 06:00:26;;;;;;;5.05;0.90;;;;;;;8.10;79.34;102124.63;7391455;19;20018;-67
2021/12/21 06:02:53;;;;;;;4.75;0.80;;;;;;;8.12;79.78;102120.13;7394172;19;20014;-67
2021/12/21 06:05:22;;;;;;;4.43;1.05;;;;;;;8.12;80.06;102116.66;7392726;19;20372;-68
2021/12/21 06:07:52;;;;;;;5.57;0.90;;;;;;;8.09;80.02;102119.47;7390418;19;20089;-68
2021/12/21 06:10:26;;;;;;;4.00;1.52;;;;;;;8.09;80.51;102119.47;7393351;19;20387;-66
2021/12/21 06:23:43;;;;;;;7.75;1.00;;;;;;;8.23;78.82;102115.91;7392813;19;20380;-66
2021/12/21 06:26:08;;;;;;;6.47;1.20;;;;;;;8.20;79.02;102116.97;7392826;19;20342;-68
2021/12/21 06:28:36;;;;;;;4.28;1.27;;;;;;;8.18;79.22;102111.81;7392604;19;20014;-66
2021/12/21 06:31:03;;;;;;;5.13;0.90;;;;;;;8.18;79.43;102119.69;7392852;19;20003;-68
2021/12/21 06:33:31;;;;;;;5.65;1.75;;;;;;;8.21;79.24;102123.03;7393714;19;20011;-66
2021/12/21 06:36:01;;;;;;;11.10;1.70;;;;;;;8.23;81.29;102129.03;7392111;19;20515;-65
2021/12/21 06:38:28;;;;;;;5.03;2.08;;;;;;;8.18;81.44;102132.78;7392401;19;20038;-67
2021/12/21 06:40:55;;;;;;;7.88;1.52;;;;;;;8.25;80.73;102127.13;7393626;19;20030;-67
2021/12/21 06:43:23;;;;;;;5.20;1.45;;;;;;;8.22;80.18;102133.44;7395603;19;20081;-67
2021/12/21 06:45:59;;;;;;;7.45;1.30;;;;;;;8.15;80.57;102126.91;7392617;19;20075;-67
2021/12/21 06:53:40;;;;;;;6.63;1.35;;;;;;;8.05;81.05;102124.09;7391639;19;20460;-67
2021/12/21 06:56:08;;;;;;;7.43;1.58;;;;;;;8.05;80.82;102116.22;7392776;19;20033;-67
2021/12/21 06:58:35;;;;;;;5.25;1.73;;;;;;;8.04;81.76;102124.19;7391392;19;20033;-68
2021/12/21 07:01:04;;;;;;;8.73;1.60;;;;;;;8.02;81.11;102120.84;7392906;19;20011;-66
2021/12/21 07:03:37;;;;;;;6.38;1.48;;;;;;;8.06;80.74;102124.94;7391241;19;20015;-67
2021/12/21 07:06:06;;;;;;;6.47;1.38;;;;;;;8.01;80.43;102129.66;7388630;19;20011;-67
2021/12/21 07:08:45;;;;;;;8.25;1.20;;;;;;;8.02;80.64;102134.78;7389604;19;20101;-66
2021/12/21 07:19:17;;;;;;;6.25;1.70;;;;;;;8.12;80.37;102133.22;7391033;19;20348;-68
2021/12/21 07:21:44;;;;;;;9.45;2.08;;;;;;;8.13;80.40;102129.63;7388765;19;20043;-68
2021/12/21 07:24:12;;;;;;;10.93;2.38;;;;;;;8.16;80.25;102131.22;7389686;19;20006;-69
2021/12/21 07:26:39;;;;;;;6.38;1.88;;;;;;;8.14;80.24;102130.47;7389964;19;20018;-66
2021/12/21 07:29:06;;;;;;;9.88;2.63;;;;;;;8.11;80.63;102126.31;7390710;19;20343;-67
2021/12/21 07:31:34;;;;;;;7.25;1.90;;;;;;;8.16;80.47;102133.84;7393380;19;20078;-68
2021/12/21 07:34:02;;;;;;;10.95;2.22;;;;;;;8.18;80.26;102136.38;7391363;19;20011;-65
2021/12/21 07:36:32;;;;;;;5.65;2.25;;;;;;;8.15;79.93;102135.63;7388797;19;20023;-68
2021/12/21 07:39:01;;;;;;;7.50;1.75;;;;;;;8.18;80.03;102134.56;7386445;19;20026;-67
2021/12/21 07:41:29;;;;;;;37.50;6.35;;;;;;;8.21;81.21;102138.78;7386682;19;20015;-68
2021/12/21 07:43:56;;;;;;;78.03;5.28;;;;;;;8.31;85.64;102126.75;7389602;19;20492;-65
2021/12/21 07:46:23;;;;;;;33.42;3.70;;;;;;;8.30;83.84;102133.75;7389413;19;20030;-68
2021/12/21 07:48:52;;;;;;;45.10;8.05;;;;;;;8.36;84.54;102127.25;7391916;19;20368;-68
2021/12/21 07:51:20;;;;;;;9.68;3.03;;;;;;;8.32;82.17;102139.75;7390798;19;20353;-67
2021/12/21 07:53:48;;;;;;;11.55;4.20;;;;;;;8.36;82.88;102129.88;7390876;19;20014;-66
2021/12/21 07:56:16;;;;;;;14.55;4.32;;;;;;;8.36;83.07;102133.34;7389597;19;20136;-67
2021/12/21 07:58:45;;;;;;;8.95;3.10;;;;;;;8.34;82.55;102139.63;7391233;19;20023;-67
2021/12/21 08:01:12;;;;;;;14.48;3.83;;;;;;;8.37;82.08;102137.66;7388148;19;20490;-68
2021/12/21 08:03:40;;;;;;;9.07;3.80;;;;;;;8.35;82.01;102138.69;7389641;19;20015;-67
2021/12/21 08:06:09;;;;;;;9.07;2.33;;;;;;;8.32;82.00;102141.53;7389203;19;20027;-68
2021/12/21 08:08:40;;;;;;;9.52;3.03;;;;;;;8.34;82.71;102142.25;7387909;19;20035;-66
2021/12/21 08:13:37;;;;;;;8.30;2.88;;;;;;;8.36;82.31;102156.09;7388186;19;20010;-68
2021/12/21 08:16:05;;;;;;;12.60;3.38;;;;;;;8.35;82.24;102155.25;7386609;19;20014;-68
2021/12/21 08:18:33;;;;;;;10.52;3.00;;;;;;;8.31;81.65;102148.56;7392665;19;20469;-67
2021/12/21 08:21:00;;;;;;;9.05;4.50;;;;;;;8.38;83.58;102144.56;7399607;19;20018;-67
2021/12/21 08:23:28;;;;;;;12.73;4.80;;;;;;;8.41;83.89;102149.59;7395163;19;20436;-67
2021/12/21 08:25:56;;;;;;;8.65;2.40;;;;;;;8.41;82.98;102139.13;7398165;19;20037;-68
2021/12/21 08:28:24;;;;;;;7.30;2.88;;;;;;;8.38;82.22;102141.13;7395606;19;20023;-68
2021/12/21 08:30:52;;;;;;;10.55;3.70;;;;;;;8.38;82.51;102134.06;7395285;19;20031;-68
2021/12/21 08:33:22;;;;;;;9.45;4.25;;;;;;;8.39;81.97;102130.50;7392916;19;20371;-67
2021/12/21 08:35:49;;;;;;;11.20;3.88;;;;;;;8.40;82.51;102126.09;7392147;19;20040;-68
2021/12/21 08:38:19;;;;;;;10.48;3.28;;;;;;;8.40;82.45;102134.81;7392837;19;20573;-66
2021/12/21 08:40:49;;;;;;;11.93;3.22;;;;;;;8.41;82.15;102128.63;7395362;19;20082;-66
2021/12/21 08:43:20;;;;;;;13.00;3.97;;;;;;;8.44;82.42;102117.06;7395010;19;20020;-68
2021/12/21 08:45:50;;;;;;;16.35;8.73;;;;;;;8.46;82.94;102123.06;7392640;19;20046;-68
2021/12/21 08:48:20;;;;;;;11.02;3.55;;;;;;;8.46;81.40;102126.50;7395182;19;20467;-68
2021/12/21 08:50:52;;;;;;;11.75;5.40;;;;;;;8.52;81.69;102123.47;7396208;19;20783;-67
2021/12/21 08:53:23;;;;;;;15.25;5.32;;;;;;;8.51;82.17;102128.81;7395340;19;20024;-67
2021/12/21 08:55:52;;;;;;;18.98;6.80;;;;;;;8.47;81.20;102128.19;7396733;19;20019;-67
2021/12/21 08:58:24;;;;;;;17.95;6.90;;;;;;;8.46;80.73;102129.13;7396077;19;20066;-68
2021/12/21 09:00:55;;;;;;;16.50;8.13;;;;;;;8.47;80.45;102132.59;7395731;19;20025;-68
2021/12/21 09:03:23;;;;;;;20.50;8.20;;;;;;;8.45;79.81;102131.84;7395688;19;20014;-68
2021/12/21 09:05:52;;;;;;;21.48;7.45;;;;;;;8.46;79.98;102129.13;7396382;19;20006;-68
2021/12/21 09:08:20;;;;;;;18.58;7.38;;;;;;;8.46;79.53;102130.91;7394410;19;20011;-66
2021/12/21 09:10:47;;;;;;;21.75;8.85;;;;;;;8.49;79.50;102142.03;7392165;19;20025;-65
2021/12/21 09:13:15;;;;;;;15.73;7.90;;;;;;;8.52;79.58;102133.97;7393075;19;20013;-69
2021/12/21 09:15:44;;;;;;;19.42;9.00;;;;;;;8.52;78.86;102133.97;7393707;19;20050;-68
2021/12/21 09:18:12;;;;;;;16.88;6.88;;;;;;;8.57;79.15;102134.47;7395896;19;20420;-67
2021/12/21 09:20:39;;;;;;;26.95;11.95;;;;;;;8.55;77.59;102132.91;7395087;19;20007;-68
2021/12/21 09:23:06;;;;;;;14.60;6.88;;;;;;;8.56;77.07;102129.34;7397774;19;20041;-68
2021/12/21 09:25:34;;;;;;;17.73;6.82;;;;;;;8.54;76.69;102136.47;7396178;19;20382;-67
2021/12/21 09:28:01;;;;;;;16.75;7.03;;;;;;;8.56;76.14;102142.44;7398861;19;20003;-68
2021/12/21 09:30:30;;;;;;;17.73;5.70;;;;;;;8.59;75.14;102136.97;7389739;19;20015;-67
2021/12/21 09:32:58;;;;;;;14.60;6.00;;;;;;;8.61;75.81;102135.09;7392816;19;20030;-69
2021/12/21 09:35:26;;;;;;;18.27;6.32;;;;;;;8.62;75.22;102144.66;7396846;19;20007;-69
2021/12/21 09:37:55;;;;;;;13.25;5.97;;;;;;;8.63;74.18;102143.72;7394895;19;20503;-73
2021/12/21 09:40:28;;;;;;;20.10;6.88;;;;;;;8.61;73.90;102145.59;7395107;19;20056;-68
2021/12/21 09:42:58;;;;;;;21.98;7.75;;;;;;;8.64;74.41;102144.53;7394668;19;20320;-67
2021/12/21 09:45:27;;;;;;;21.10;7.22;;;;;;;8.66;73.08;102142.63;7392479;19;20019;-67
2021/12/21 09:47:54;;;;;;;18.63;5.93;;;;;;;8.67;72.07;102145.16;7392439;19;20017;-67
2021/12/21 09:50:25;;;;;;;21.35;6.75;;;;;;;8.71;72.56;102156.28;7394629;19;20027;-67
2021/12/21 09:52:54;;;;;;;21.65;6.55;;;;;;;8.73;72.01;102159.63;7393075;19;20023;-67
2021/12/21 09:55:23;;;;;;;18.73;6.95;;;;;;;8.77;71.58;102167.19;7392466;19;20398;-67
2021/12/21 09:57:51;;;;;;;20.77;6.50;;;;;;;8.77;71.16;102164.56;7395726;19;20036;-67
2021/12/21 10:00:24;;;;;;;16.60;6.93;;;;;;;8.80;71.07;102166.13;7393789;19;20021;-68
2021/12/21 10:03:01;;;;;;;22.83;6.95;;;;;;;8.80;70.56;102169.59;7395862;19;20017;-67
2021/12/21 10:05:32;;;;;;;21.23;6.57;;;;;;;8.80;70.21;102166.97;7394005;19;20337;-68
2021/12/21 10:08:04;;;;;;;21.30;7.15;;;;;;;8.77;70.79;102177.69;7394850;19;20038;-68
2021/12/21 10:10:34;;;;;;;18.88;7.30;;;;;;;8.78;70.22;102178.53;7393518;19;20020;-66
2021/12/21 10:13:14;;;;;;;20.70;6.88;;;;;;;8.80;70.82;102161.72;7394256;19;20014;-67
2021/12/21 10:15:46;;;;;;;18.33;6.97;;;;;;;8.83;70.96;102174.63;7391683;19;20010;-67
2021/12/21 10:18:21;;;;;;;20.17;7.77;;;;;;;8.81;69.92;102179.13;7394481;19;20013;-68
2021/12/21 10:20:49;;;;;;;17.35;6.65;;;;;;;8.87;70.70;102178.72;7394886;19;20340;-67
2021/12/21 10:23:25;;;;;;;17.08;6.50;;;;;;;8.89;69.56;102178.59;7392699;19;20014;-67
2021/12/21 10:26:00;;;;;;;23.48;6.63;;;;;;;8.87;69.08;102178.72;7393872;19;20007;-67
2021/12/21 10:28:36;;;;;;;17.85;6.47;;;;;;;8.88;69.46;102174.31;7393501;19;20010;-67
2021/12/21 10:31:08;;;;;;;20.70;7.03;;;;;;;8.91;68.62;102171.44;7393442;19;20012;-68
2021/12/21 10:33:37;;;;;;;20.65;7.63;;;;;;;8.91;68.78;102174.91;7391421;19;20014;-68
2021/12/21 10:36:08;;;;;;;21.33;7.13;;;;;;;8.90;68.47;102167.97;7390943;19;20548;-66
2021/12/21 10:38:39;;;;;;;17.38;6.82;;;;;;;8.94;68.25;102166.81;7390935;19;20015;-66
2021/12/21 10:41:10;;;;;;;23.45;7.88;;;;;;;8.96;67.19;102164.09;7388932;19;20037;-66
2021/12/21 10:43:39;;;;;;;21.10;7.93;;;;;;;8.97;67.16;102164.00;7391038;19;20018;-66
2021/12/21 10:46:07;;;;;;;25.75;8.30;;;;;;;8.98;65.93;102167.47;7393413;19;20014;-67
2021/12/21 10:48:37;;;;;;;17.63;7.85;;;;;;;9.01;66.59;102154.94;7394322;19;20032;-68
2021/12/21 10:51:14;;;;;;;22.67;7.65;;;;;;;8.99;67.00;102162.06;7391155;19;20018;-69
2021/12/21 10:53:48;;;;;;;19.85;7.80;;;;;;;9.01;66.59;102167.22;7390991;19;20321;-69
2021/12/21 10:56:18;;;;;;;22.35;8.82;;;;;;;9.05;66.78;102149.47;7390712;19;20009;-67
2021/12/21 10:58:46;;;;;;;23.98;7.22;;;;;;;9.07;66.06;102152.81;7390756;19;20018;-69
2021/12/21 11:01:42;;;;;;;26.63;9.00;;;;;;;9.09;66.70;102154.41;7389001;19;20086;-68
2021/12/21 11:04:13;;;;;;;25.50;8.70;;;;;;;9.11;66.04;102165.63;7392526;19;20011;-66
2021/12/21 11:06:47;;;;;;;20.63;7.10;;;;;;;9.12;65.06;102161.22;7393068;19;20483;-68
2021/12/21 11:09:14;;;;;;;22.45;8.38;;;;;;;9.11;65.46;102163.00;7393523;19;20472;-66
2021/12/21 11:11:48;;;;;;;24.23;8.43;;;;;;;9.12;64.95;102153.34;7388501;19;20022;-66
2021/12/21 11:14:18;;;;;;;22.55;7.55;;;;;;;9.13;66.24;102155.84;7389957;19;20113;-67
2021/12/21 11:16:48;;;;;;;19.25;7.47;;;;;;;9.11;66.18;102141.16;7388720;19;20006;-69
2021/12/21 11:19:20;;;;;;;21.50;7.53;;;;;;;9.10;64.15;102148.19;7386930;19;20466;-68
2021/12/21 11:21:48;;;;;;;24.75;7.85;;;;;;;9.13;64.70;102152.38;7390591;19;20013;-68
2021/12/21 11:24:18;;;;;;;19.73;8.00;;;;;;;9.12;64.69;102143.66;7389360;19;20014;-68
2021/12/21 11:26:47;;;;;;;19.92;7.60;;;;;;;9.13;64.56;102144.50;7391816;19;20003;-67
2021/12/21 11:29:18;;;;;;;20.27;7.55;;;;;;;9.11;64.42;102143.78;7392002;19;20416;-66
2021/12/21 11:31:53;;;;;;;25.40;8.38;;;;;;;9.12;65.93;102145.47;7392597;19;20339;-68
2021/12/21 11:34:31;;;;;;;19.77;7.57;;;;;;;9.12;65.45;102137.56;7391915;19;20007;-67
2021/12/21 11:39:39;;;;;;;22.83;8.45;;;;;;;9.18;65.50;102140.59;7390939;19;20412;-69
2021/12/21 11:42:10;;;;;;;26.17;9.05;;;;;;;9.19;65.55;102136.19;7389882;19;20014;-67
2021/12/21 11:44:39;;;;;;;23.00;8.80;;;;;;;9.24;65.58;102134.06;7389826;19;20222;-68
2021/12/21 11:47:11;;;;;;;21.40;8.15;;;;;;;9.26;64.25;102125.13;7389820;19;20015;-66
2021/12/21 11:49:45;;;;;;;24.23;9.48;;;;;;;9.24;64.34;102118.31;7391382;19;20020;-67
2021/12/21 11:52:23;;;;;;;19.65;7.95;;;;;;;9.26;63.42;102116.41;7389455;19;20017;-66
2021/12/21 11:54:57;;;;;;;17.85;7.57;;;;;;;9.28;62.47;102110.09;7390760;19;20462;-68
2021/12/21 11:57:37;;;;;;;28.40;10.57;;;;;;;9.25;62.64;102117.34;7390407;19;20003;-68
2021/12/21 12:00:08;;;;;;;20.85;8.18;;;;;;;9.25;63.61;102101.59;7391666;19;20011;-67
2021/12/21 12:02:37;;;;;;;21.80;8.82;;;;;;;9.27;63.00;102102.31;7391086;19;20482;-68
2021/12/21 12:05:16;;;;;;;20.40;7.85;;;;;;;9.24;61.97;102100.78;7390531;19;20014;-67
2021/12/21 12:07:44;;;;;;;23.23;7.00;;;;;;;9.21;62.21;102095.72;7389829;19;20018;-68
2021/12/21 12:10:15;;;;;;;22.98;8.27;;;;;;;9.21;62.37;102097.53;7390237;19;20013;-67
2021/12/21 12:12:44;;;;;;;22.42;7.80;;;;;;;9.25;62.08;102093.72;7388694;19;20115;-68
2021/12/21 12:15:16;;;;;;;17.90;7.13;;;;;;;9.26;61.79;102087.50;7390782;19;20022;-67
2021/12/21 12:17:47;;;;;;;21.02;8.40;;;;;;;9.26;61.29;102090.13;7391060;19;20025;-68
2021/12/21 12:20:16;;;;;;;26.48;8.20;;;;;;;9.26;62.23;102084.88;7388338;19;20472;-67
2021/12/21 12:22:46;;;;;;;18.52;7.00;;;;;;;9.25;61.16;102085.84;7391987;19;20010;-67
2021/12/21 12:25:19;;;;;;;16.92;7.38;;;;;;;9.24;61.01;102089.44;7390900;19;20340;-68
2021/12/21 12:27:56;;;;;;;16.55;6.75;;;;;;;9.26;62.78;102083.09;7390553;19;20011;-68
2021/12/21 12:30:29;;;;;;;20.65;7.00;;;;;;;9.26;60.52;102085.72;7390590;19;20306;-69
2021/12/21 12:33:00;;;;;;;19.77;7.78;;;;;;;9.29;61.72;102075.03;7389190;19;20377;-67
2021/12/21 12:35:31;;;;;;;22.85;7.40;;;;;;;9.33;61.50;102075.63;7388705;19;20427;-68
2021/12/21 12:38:02;;;;;;;17.17;7.68;;;;;;;9.35;61.57;102071.91;7386630;19;20010;-67
2021/12/21 12:40:34;;;;;;;22.80;8.70;;;;;;;9.41;62.88;102062.75;7388140;19;20369;-69
2021/12/21 12:43:17;;;;;;;17.93;6.43;;;;;;;9.43;60.67;102060.84;7390070;19;20508;-67
2021/12/21 12:45:51;;;;;;;19.20;7.22;;;;;;;9.42;61.10;102069.66;7386880;19;20266;-67